KPLR/PLR METAR and TAF weather

Enter ICAO airport designator
Station Type Date Time Source
KPLR METAR 2022/07/01 01:35 UTC NOAA

KPLR 010135Z AUTO 00000KT 6SM BR CLR 23/23 A3013 RMK A01


Station Type Date Time Source
KPLR Decoded METAR 2022/07/01 01:35 UTC NOAA

Station name not available
Jun 30, 2022 - 09:35 PM EDT / 2022.07.01 0135 UTC
Wind: Calm:0
Visibility: 6 mile(s):0
Sky conditions: clear
Weather: mist
Temperature: 73 F (23 C)
Dew Point: 73 F (23 C)
Relative Humidity: 100%
Pressure (altimeter): 30.13 in. Hg (1020 hPa)
ob: KPLR 010135Z AUTO 00000KT 6SM BR CLR 23/23 A3013 RMK A01
cycle: 1

Station Type Date Time Source
KPLR TAF UTC NOAA

Error!

Example: see airport list